Time;durP1;ratioP1;P1;durP2;ratioP2;P2;SDS_P1;SDS_P2;PMS_P1;PMS_P2;Temp;Humidity;BMP_temperature;BMP_pressure;BME280_temperature;BME280_humidity;BME280_pressure;Samples;Min_cycle;Max_cycle;Signal;HPM_P1;HPM_P2
2022/08/17 00:02:22;;;;;;;38.13;29.90;;;;;;;;;;5049463;28;20051;-59
2022/08/17 00:04:48;;;;;;;34.00;30.30;;;;;;;;;;5050306;28;20048;-59
2022/08/17 00:07:14;;;;;;;33.93;30.43;;;;;;;;;;5050076;28;20160;-59
2022/08/17 00:09:41;;;;;;;35.20;31.40;;;;;;;;;;5049795;28;20124;-60
2022/08/17 00:12:07;;;;;;;35.37;31.37;;;;;;;;;;5049554;28;20045;-59
2022/08/17 00:14:33;;;;;;;32.70;29.20;;;;;;;;;;5049101;28;20140;-59
2022/08/17 00:16:59;;;;;;;32.10;28.70;;;;;;;;;;5049686;28;20194;-59
2022/08/17 00:19:25;;;;;;;32.73;28.37;;;;;;;;;;5049006;28;20628;-59
2022/08/17 00:21:54;;;;;;;32.07;28.67;;;;;;;;;;5048715;28;20037;-59
2022/08/17 00:24:23;;;;;;;34.03;29.10;;;;;;;;;;5049728;28;20048;-60
2022/08/17 00:26:51;;;;;;;35.17;31.40;;;;;;;;;;5049416;28;20095;-59
2022/08/17 00:29:17;;;;;;;36.87;32.57;;;;;;;;;;5048923;28;20041;-59
2022/08/17 00:31:43;;;;;;;38.17;33.43;;;;;;;;;;5048449;28;20422;-59
2022/08/17 00:34:09;;;;;;;39.63;34.13;;;;;;;;;;5048406;28;20041;-59
2022/08/17 00:36:36;;;;;;;39.33;32.80;;;;;;;;;;5048718;28;20073;-60
2022/08/17 00:39:02;;;;;;;39.20;33.60;;;;;;;;;;5049582;28;20124;-59
2022/08/17 00:41:29;;;;;;;44.60;35.47;;;;;;;;;;5048968;28;20041;-59
2022/08/17 00:43:56;;;;;;;39.33;35.00;;;;;;;;;;5047024;28;20640;-59
2022/08/17 00:46:25;;;;;;;40.80;35.10;;;;;;;;;;5048005;28;20041;-59
2022/08/17 00:48:51;;;;;;;45.97;36.57;;;;;;;;;;5048512;28;20095;-59
2022/08/17 00:51:36;;;;;;;49.43;37.43;;;;;;;;;;5049230;28;20041;-59
2022/08/17 00:54:10;;;;;;;62.40;45.93;;;;;;;;;;5047703;28;20048;-59
2022/08/17 00:56:39;;;;;;;51.40;39.53;;;;;;;;;;5049111;28;20041;-59
2022/08/17 00:59:07;;;;;;;51.27;40.70;;;;;;;;;;5047934;28;20231;-59
2022/08/17 01:01:33;;;;;;;50.73;39.73;;;;;;;;;;5048443;28;20048;-59
2022/08/17 01:04:00;;;;;;;51.87;42.27;;;;;;;;;;5048986;28;20258;-59
2022/08/17 01:06:27;;;;;;;65.53;48.20;;;;;;;;;;5048714;28;20053;-59
2022/08/17 01:08:54;;;;;;;63.60;46.77;;;;;;;;;;5048454;28;20132;-59
2022/08/17 01:11:20;;;;;;;59.17;43.23;;;;;;;;;;5048228;28;20518;-59
2022/08/17 01:13:47;;;;;;;65.23;45.33;;;;;;;;;;5049070;28;20048;-59
2022/08/17 01:16:18;;;;;;;60.40;45.17;;;;;;;;;;5048924;28;20132;-59
2022/08/17 01:18:46;;;;;;;66.30;48.43;;;;;;;;;;5048421;28;20049;-59
2022/08/17 01:21:21;;;;;;;80.10;50.70;;;;;;;;;;5048733;28;20851;-59
2022/08/17 01:23:47;;;;;;;72.20;49.87;;;;;;;;;;5048845;28;20045;-59
2022/08/17 01:26:14;;;;;;;67.37;49.50;;;;;;;;;;5047730;28;20049;-59
2022/08/17 01:28:40;;;;;;;76.10;51.53;;;;;;;;;;5048259;28;20052;-59
2022/08/17 01:31:07;;;;;;;70.53;44.57;;;;;;;;;;5048212;28;20060;-60
2022/08/17 01:33:33;;;;;;;65.73;46.73;;;;;;;;;;5048773;28;20060;-60
2022/08/17 01:35:59;;;;;;;74.50;50.77;;;;;;;;;;5048262;28;20048;-60
2022/08/17 01:38:30;;;;;;;70.43;50.33;;;;;;;;;;5048631;28;20045;-59
2022/08/17 01:40:58;;;;;;;76.17;51.73;;;;;;;;;;5047831;28;20048;-58
2022/08/17 01:43:50;;;;;;;74.57;49.90;;;;;;;;;;5048011;28;20053;-59
2022/08/17 01:46:20;;;;;;;84.67;53.30;;;;;;;;;;5046446;28;20049;-59
2022/08/17 01:48:47;;;;;;;99.63;58.37;;;;;;;;;;5048398;28;20510;-59
2022/08/17 01:51:14;;;;;;;96.10;58.87;;;;;;;;;;5047886;28;20764;-59
2022/08/17 01:53:42;;;;;;;96.90;59.07;;;;;;;;;;5047556;28;20045;-59
2022/08/17 01:56:10;;;;;;;95.33;59.07;;;;;;;;;;5048158;28;20454;-59
2022/08/17 01:58:36;;;;;;;88.57;56.87;;;;;;;;;;5047854;28;20095;-59
2022/08/17 02:01:05;;;;;;;67.03;47.10;;;;;;;;;;5048104;28;20132;-59
2022/08/17 02:03:31;;;;;;;74.80;49.90;;;;;;;;;;5047615;28;20049;-59
2022/08/17 02:05:58;;;;;;;77.23;48.17;;;;;;;;;;5048217;28;20072;-59
2022/08/17 02:08:24;;;;;;;86.60;54.03;;;;;;;;;;5048053;28;20048;-59
2022/08/17 02:10:50;;;;;;;90.03;55.73;;;;;;;;;;5048481;28;20049;-59
2022/08/17 02:13:18;;;;;;;91.07;55.03;;;;;;;;;;5051824;28;20076;-59
2022/08/17 02:15:45;;;;;;;90.90;55.73;;;;;;;;;;5051499;28;20468;-59
2022/08/17 02:18:11;;;;;;;87.17;53.93;;;;;;;;;;5051749;28;20045;-59
2022/08/17 02:20:38;;;;;;;93.10;58.30;;;;;;;;;;5051380;28;20029;-59
2022/08/17 02:23:05;;;;;;;99.07;60.40;;;;;;;;;;5052167;28;20045;-59
2022/08/17 02:25:32;;;;;;;115.37;66.87;;;;;;;;;;5052185;28;20065;-59
2022/08/17 02:27:59;;;;;;;121.97;68.73;;;;;;;;;;5052676;28;20068;-59
2022/08/17 02:30:25;;;;;;;98.87;62.57;;;;;;;;;;5052598;28;20044;-59
2022/08/17 02:32:55;;;;;;;107.10;63.93;;;;;;;;;;5052520;28;20423;-59
2022/08/17 02:35:21;;;;;;;105.00;60.57;;;;;;;;;;5052157;28;20041;-59
2022/08/17 02:37:48;;;;;;;100.77;59.80;;;;;;;;;;5052608;28;20454;-60
2022/08/17 02:40:14;;;;;;;98.17;58.00;;;;;;;;;;5052317;28;20041;-59
2022/08/17 02:42:41;;;;;;;111.23;61.13;;;;;;;;;;5052421;28;20495;-59
2022/08/17 02:45:12;;;;;;;104.03;61.00;;;;;;;;;;5052135;28;20060;-59
2022/08/17 02:47:39;;;;;;;98.47;57.60;;;;;;;;;;5051692;28;20411;-59
2022/08/17 02:50:06;;;;;;;121.20;69.07;;;;;;;;;;5052076;28;20052;-59
2022/08/17 02:52:34;;;;;;;104.47;61.23;;;;;;;;;;5052600;28;20033;-59
2022/08/17 02:55:00;;;;;;;126.83;69.83;;;;;;;;;;5052296;28;20044;-59
2022/08/17 02:57:26;;;;;;;143.13;74.30;;;;;;;;;;5052230;28;20754;-59
2022/08/17 02:59:52;;;;;;;116.30;64.17;;;;;;;;;;5052182;28;20037;-59
2022/08/17 03:02:18;;;;;;;108.20;64.50;;;;;;;;;;5051559;28;20048;-59
2022/08/17 03:04:44;;;;;;;146.30;72.80;;;;;;;;;;5052398;28;20056;-59
2022/08/17 03:07:10;;;;;;;121.43;67.20;;;;;;;;;;5051046;28;20049;-59
2022/08/17 03:09:36;;;;;;;115.57;66.30;;;;;;;;;;5051660;28;20049;-59
2022/08/17 03:12:11;;;;;;;104.40;63.33;;;;;;;;;;5051911;28;20052;-59
2022/08/17 03:14:43;;;;;;;123.30;66.30;;;;;;;;;;5052012;28;20079;-59
2022/08/17 03:17:11;;;;;;;107.80;60.43;;;;;;;;;;5051158;28;20071;-59
2022/08/17 03:19:37;;;;;;;107.30;60.73;;;;;;;;;;5051488;28;20041;-59
2022/08/17 03:22:07;;;;;;;125.73;64.60;;;;;;;;;;5051034;28;20419;-59
2022/08/17 03:24:33;;;;;;;103.83;59.83;;;;;;;;;;5051721;28;20049;-59
2022/08/17 03:27:00;;;;;;;102.63;60.57;;;;;;;;;;5051051;28;20053;-59
2022/08/17 03:29:26;;;;;;;119.27;66.13;;;;;;;;;;5051578;28;20400;-60
2022/08/17 03:31:52;;;;;;;131.27;70.10;;;;;;;;;;5051193;28;20049;-59
2022/08/17 03:34:18;;;;;;;94.20;59.07;;;;;;;;;;5050911;28;20040;-59
2022/08/17 03:36:45;;;;;;;113.63;63.73;;;;;;;;;;5050905;28;20071;-60
2022/08/17 03:39:11;;;;;;;106.63;60.13;;;;;;;;;;5051656;28;20052;-59
2022/08/17 03:41:37;;;;;;;124.83;68.57;;;;;;;;;;5050891;28;20053;-59
2022/08/17 03:44:03;;;;;;;115.67;63.43;;;;;;;;;;5051310;28;20056;-59
2022/08/17 03:57:30;;;;;;;126.83;69.63;;;;;;;;;;5031308;28;20046;-59
2022/08/17 03:59:56;;;;;;;141.13;69.70;;;;;;;;;;5031251;28;20057;-59
2022/08/17 04:02:28;;;;;;;113.10;65.60;;;;;;;;;;5033778;28;20052;-59
2022/08/17 04:04:54;;;;;;;127.40;67.17;;;;;;;;;;5050925;28;20149;-59
2022/08/17 04:07:21;;;;;;;107.90;65.27;;;;;;;;;;5050478;28;20095;-59
2022/08/17 04:09:47;;;;;;;106.43;63.13;;;;;;;;;;5050707;28;20064;-59
2022/08/17 04:12:14;;;;;;;112.30;65.10;;;;;;;;;;5050850;28;20075;-58
2022/08/17 04:14:41;;;;;;;111.97;66.47;;;;;;;;;;5050572;28;20082;-60
2022/08/17 04:17:08;;;;;;;123.53;66.23;;;;;;;;;;5050465;28;20426;-59
2022/08/17 04:19:35;;;;;;;135.37;72.60;;;;;;;;;;5050199;28;20037;-59
2022/08/17 04:22:04;;;;;;;103.73;62.07;;;;;;;;;;5050246;28;20052;-59
2022/08/17 04:24:30;;;;;;;109.07;64.60;;;;;;;;;;5050695;28;20105;-59
2022/08/17 04:26:56;;;;;;;112.27;65.57;;;;;;;;;;5050188;28;20044;-60
2022/08/17 04:29:24;;;;;;;108.27;63.73;;;;;;;;;;5050482;28;20052;-59
2022/08/17 04:31:50;;;;;;;97.33;62.13;;;;;;;;;;5050113;28;20048;-59
2022/08/17 04:34:17;;;;;;;74.23;52.17;;;;;;;;;;5048969;28;20087;-59
2022/08/17 04:36:43;;;;;;;95.03;59.40;;;;;;;;;;5049701;28;20052;-60
2022/08/17 04:39:09;;;;;;;67.70;48.83;;;;;;;;;;5050131;28;20048;-59
2022/08/17 04:44:20;;;;;;;89.60;57.73;;;;;;;;;;5049986;28;20403;-59
2022/08/17 04:46:46;;;;;;;63.70;46.37;;;;;;;;;;5049427;28;20455;-59
2022/08/17 04:49:12;;;;;;;79.97;54.37;;;;;;;;;;5030041;28;20042;-59
2022/08/17 04:51:40;;;;;;;75.73;50.97;;;;;;;;;;5029722;28;20052;-60
2022/08/17 04:54:08;;;;;;;78.00;52.23;;;;;;;;;;5028976;28;20072;-60
2022/08/17 04:56:34;;;;;;;79.33;52.40;;;;;;;;;;5036068;28;20553;-59
2022/08/17 04:59:02;;;;;;;78.07;51.37;;;;;;;;;;5049613;28;20127;-60
2022/08/17 05:01:29;;;;;;;83.57;54.60;;;;;;;;;;5049313;28;20149;-59
2022/08/17 05:03:58;;;;;;;75.63;51.03;;;;;;;;;;5049152;28;20762;-59
2022/08/17 05:06:25;;;;;;;68.70;48.07;;;;;;;;;;5049597;28;20045;-59
2022/08/17 05:08:51;;;;;;;76.77;52.40;;;;;;;;;;5049510;28;20135;-59
2022/08/17 05:11:17;;;;;;;65.43;44.30;;;;;;;;;;5049618;28;20131;-59
2022/08/17 05:13:43;;;;;;;68.80;49.43;;;;;;;;;;5049609;28;20090;-59
2022/08/17 05:16:10;;;;;;;80.37;53.53;;;;;;;;;;5049966;28;20052;-60
2022/08/17 05:18:37;;;;;;;80.67;54.13;;;;;;;;;;5049507;28;20106;-59
2022/08/17 05:21:04;;;;;;;66.03;47.27;;;;;;;;;;5049422;28;20052;-59
2022/08/17 05:23:30;;;;;;;65.87;48.50;;;;;;;;;;5049093;28;20052;-59
2022/08/17 05:25:57;;;;;;;68.20;46.77;;;;;;;;;;5049426;28;20176;-59
2022/08/17 05:28:24;;;;;;;67.63;47.70;;;;;;;;;;5049661;28;20530;-59
2022/08/17 05:30:50;;;;;;;70.87;49.03;;;;;;;;;;5048247;28;20047;-60
2022/08/17 05:33:21;;;;;;;66.13;48.07;;;;;;;;;;5049495;28;20103;-60
2022/08/17 05:35:48;;;;;;;60.40;45.73;;;;;;;;;;5048525;28;20407;-60
2022/08/17 05:38:16;;;;;;;59.20;44.77;;;;;;;;;;5049336;28;20041;-60
2022/08/17 05:40:42;;;;;;;59.80;44.17;;;;;;;;;;5048752;28;20036;-59
2022/08/17 05:43:11;;;;;;;57.27;45.77;;;;;;;;;;5048586;28;20105;-60
2022/08/17 05:45:40;;;;;;;55.50;44.07;;;;;;;;;;5050439;28;20049;-60
2022/08/17 05:48:07;;;;;;;58.57;44.40;;;;;;;;;;5051420;28;20068;-60
2022/08/17 05:50:53;;;;;;;56.73;44.80;;;;;;;;;;5052626;28;20040;-60
2022/08/17 05:53:42;;;;;;;55.27;43.03;;;;;;;;;;5046494;28;20045;-59
2022/08/17 05:56:11;;;;;;;54.03;43.07;;;;;;;;;;5050807;28;20049;-59
2022/08/17 05:58:52;;;;;;;55.50;43.40;;;;;;;;;;5052312;28;20827;-60
2022/08/17 06:01:30;;;;;;;54.67;42.60;;;;;;;;;;5052037;28;20562;-59
2022/08/17 06:04:15;;;;;;;51.90;39.20;;;;;;;;;;5052269;28;20040;-60
2022/08/17 06:06:49;;;;;;;51.40;42.57;;;;;;;;;;5042247;28;20041;-60
2022/08/17 06:09:35;;;;;;;51.53;40.90;;;;;;;;;;5047437;28;20499;-59
2022/08/17 06:12:13;;;;;;;41.00;36.57;;;;;;;;;;5051541;28;20045;-59
2022/08/17 06:14:52;;;;;;;41.43;36.37;;;;;;;;;;5041925;28;20104;-60
2022/08/17 06:17:20;;;;;;;42.53;35.80;;;;;;;;;;5052329;28;20120;-60
2022/08/17 06:19:53;;;;;;;38.97;34.53;;;;;;;;;;5051128;28;20688;-60
2022/08/17 06:22:21;;;;;;;37.92;33.20;;;;;;;;;;5052033;28;20071;-60
2022/08/17 06:24:48;;;;;;;37.90;33.60;;;;;;;;;;5050203;28;20040;-60
2022/08/17 06:27:17;;;;;;;37.07;32.70;;;;;;;;;;5048564;28;20049;-60
2022/08/17 06:29:49;;;;;;;37.83;33.87;;;;;;;;;;5045688;28;20052;-59
2022/08/17 06:32:16;;;;;;;36.17;31.87;;;;;;;;;;5033020;28;20049;-60
2022/08/17 06:34:43;;;;;;;37.90;32.77;;;;;;;;;;5033221;28;20068;-60
2022/08/17 06:37:27;;;;;;;34.43;30.73;;;;;;;;;;5040578;28;20060;-60
2022/08/17 06:40:14;;;;;;;35.03;31.13;;;;;;;;;;5051682;28;20060;-60
2022/08/17 06:42:59;;;;;;;37.60;29.20;;;;;;;;;;5050521;28;20045;-59
2022/08/17 06:45:34;;;;;;;34.93;30.57;;;;;;;;;;5032146;28;20392;-60
2022/08/17 06:48:13;;;;;;;33.57;30.20;;;;;;;;;;5050828;28;20040;-60
2022/08/17 06:50:43;;;;;;;34.93;29.93;;;;;;;;;;5051798;28;20054;-60
2022/08/17 06:53:28;;;;;;;33.23;28.73;;;;;;;;;;5041643;28;20064;-60
2022/08/17 06:56:00;;;;;;;29.87;26.67;;;;;;;;;;5045281;28;20491;-60
2022/08/17 06:58:30;;;;;;;32.60;27.07;;;;;;;;;;5031747;28;20591;-59
2022/08/17 07:01:00;;;;;;;27.93;25.13;;;;;;;;;;5032517;28;20095;-60
2022/08/17 07:03:36;;;;;;;28.93;26.03;;;;;;;;;;5032541;28;20049;-60
2022/08/17 07:06:16;;;;;;;28.97;25.87;;;;;;;;;;5044231;28;20072;-60
2022/08/17 07:08:47;;;;;;;28.10;25.23;;;;;;;;;;5043772;28;20064;-60
2022/08/17 07:11:18;;;;;;;28.97;26.17;;;;;;;;;;5046646;28;20563;-60
2022/08/17 07:13:50;;;;;;;27.07;24.37;;;;;;;;;;5050289;28;20048;-60
2022/08/17 07:16:28;;;;;;;26.87;23.70;;;;;;;;;;5051011;28;20604;-60
2022/08/17 07:18:56;;;;;;;26.83;24.23;;;;;;;;;;5051767;28;20056;-60
2022/08/17 07:21:24;;;;;;;27.73;24.90;;;;;;;;;;5050503;28;20056;-60
2022/08/17 07:23:53;;;;;;;30.03;25.07;;;;;;;;;;5044815;28;20053;-60
2022/08/17 07:26:22;;;;;;;28.60;24.50;;;;;;;;;;5048616;28;20106;-60
2022/08/17 07:28:49;;;;;;;27.97;24.63;;;;;;;;;;5051528;28;20059;-60
2022/08/17 07:31:16;;;;;;;25.97;23.37;;;;;;;;;;5050756;28;20048;-60
2022/08/17 07:33:57;;;;;;;28.37;25.47;;;;;;;;;;5051456;28;20667;-59
2022/08/17 07:36:25;;;;;;;28.03;25.03;;;;;;;;;;5049802;28;20444;-60
2022/08/17 07:38:56;;;;;;;28.40;24.90;;;;;;;;;;5048750;28;20412;-59
2022/08/17 07:41:22;;;;;;;27.80;24.93;;;;;;;;;;5031591;28;20049;-60
2022/08/17 07:43:51;;;;;;;27.23;24.73;;;;;;;;;;5032179;28;20508;-59
2022/08/17 07:49:09;;;;;;;26.87;23.93;;;;;;;;;;5049306;28;20392;-60
2022/08/17 07:51:36;;;;;;;30.47;27.27;;;;;;;;;;5049567;28;20053;-60
2022/08/17 07:54:14;;;;;;;27.90;24.93;;;;;;;;;;5047922;28;20045;-60
2022/08/17 07:56:43;;;;;;;28.27;25.43;;;;;;;;;;5047416;28;20045;-60
2022/08/17 07:59:11;;;;;;;29.43;26.33;;;;;;;;;;5050604;28;20045;-60
2022/08/17 08:01:37;;;;;;;29.50;25.93;;;;;;;;;;5048937;28;20048;-60
2022/08/17 08:04:16;;;;;;;28.67;24.57;;;;;;;;;;5050456;28;20061;-60
2022/08/17 08:06:51;;;;;;;27.30;24.67;;;;;;;;;;5049428;28;20080;-60
2022/08/17 08:09:40;;;;;;;28.40;25.63;;;;;;;;;;5047274;28;20064;-59
2022/08/17 08:12:25;;;;;;;29.07;26.10;;;;;;;;;;5050850;28;20103;-59
2022/08/17 08:14:55;;;;;;;30.33;27.00;;;;;;;;;;5049340;28;20045;-59
2022/08/17 08:17:22;;;;;;;28.80;25.73;;;;;;;;;;5049827;28;20106;-59
2022/08/17 08:19:48;;;;;;;28.40;25.37;;;;;;;;;;5049254;28;20041;-60
2022/08/17 08:22:20;;;;;;;29.00;26.00;;;;;;;;;;5048926;28;20047;-60
2022/08/17 08:25:01;;;;;;;27.87;25.13;;;;;;;;;;5050188;28;20044;-60
2022/08/17 08:27:54;;;;;;;27.17;24.47;;;;;;;;;;5049729;28;20415;-60
2022/08/17 08:30:21;;;;;;;28.77;25.73;;;;;;;;;;5046615;28;20055;-60
2022/08/17 08:33:02;;;;;;;27.57;24.87;;;;;;;;;;5030534;28;20045;-60
2022/08/17 08:35:47;;;;;;;28.40;25.60;;;;;;;;;;5030806;28;20045;-60
2022/08/17 08:38:33;;;;;;;30.10;26.87;;;;;;;;;;5048947;28;20403;-60
2022/08/17 08:40:59;;;;;;;31.13;27.20;;;;;;;;;;5050493;28;20045;-60
2022/08/17 08:43:40;;;;;;;28.20;25.33;;;;;;;;;;5040280;28;20068;-60
2022/08/17 08:46:12;;;;;;;30.23;27.03;;;;;;;;;;5034459;28;20415;-60
2022/08/17 08:48:38;;;;;;;27.00;24.17;;;;;;;;;;5050378;28;20083;-61
2022/08/17 08:51:21;;;;;;;30.00;26.83;;;;;;;;;;5046673;28;20096;-59
2022/08/17 08:53:47;;;;;;;24.83;22.42;;;;;;;;;;5050473;28;20136;-60
2022/08/17 08:56:34;;;;;;;26.50;23.60;;;;;;;;;;5046615;28;20053;-60
2022/08/17 08:59:23;;;;;;;25.73;23.23;;;;;;;;;;5047616;28;20058;-60
2022/08/17 09:01:58;;;;;;;25.13;22.73;;;;;;;;;;5033734;28;20045;-60
2022/08/17 09:04:44;;;;;;;25.50;22.77;;;;;;;;;;5047201;28;20136;-60
2022/08/17 09:07:29;;;;;;;22.63;20.43;;;;;;;;;;5049254;28;20659;-60
2022/08/17 09:10:13;;;;;;;25.63;22.92;;;;;;;;;;5028959;28;20503;-60
2022/08/17 09:12:54;;;;;;;24.08;21.60;;;;;;;;;;5049961;28;20052;-60
2022/08/17 09:15:24;;;;;;;22.90;20.55;;;;;;;;;;5048222;28;20047;-60
2022/08/17 09:17:56;;;;;;;23.48;21.17;;;;;;;;;;5048780;28;20048;-60
2022/08/17 09:20:25;;;;;;;24.52;20.75;;;;;;;;;;5046809;28;20492;-61
2022/08/17 09:22:57;;;;;;;21.65;19.45;;;;;;;;;;5047920;28;20120;-60
2022/08/17 09:25:27;;;;;;;21.20;19.10;;;;;;;;;;5047886;28;20499;-61
2022/08/17 09:28:02;;;;;;;23.48;20.90;;;;;;;;;;5049331;28;20076;-60
2022/08/17 09:30:35;;;;;;;23.25;20.67;;;;;;;;;;5048569;28;20056;-60
2022/08/17 09:33:04;;;;;;;23.00;20.80;;;;;;;;;;5048388;28;20064;-60
2022/08/17 09:35:33;;;;;;;22.13;20.02;;;;;;;;;;5049373;28;20877;-60
2022/08/17 09:38:12;;;;;;;25.67;22.08;;;;;;;;;;5048908;28;20076;-60
2022/08/17 09:40:52;;;;;;;24.45;20.40;;;;;;;;;;5049181;28;20052;-60
2022/08/17 09:43:33;;;;;;;21.92;19.80;;;;;;;;;;5048115;28;20045;-60
2022/08/17 09:46:05;;;;;;;23.88;20.27;;;;;;;;;;5049148;28;20472;-60
2022/08/17 09:48:43;;;;;;;23.95;21.65;;;;;;;;;;5049010;28;20130;-60
2022/08/17 09:51:20;;;;;;;20.35;18.20;;;;;;;;;;5046590;28;20162;-61
2022/08/17 09:53:47;;;;;;;22.73;20.35;;;;;;;;;;5046737;28;20120;-60
2022/08/17 09:56:22;;;;;;;21.98;19.55;;;;;;;;;;5048824;28;20403;-60
2022/08/17 09:59:07;;;;;;;20.38;17.60;;;;;;;;;;5046845;28;20049;-60
2022/08/17 10:01:38;;;;;;;19.65;17.75;;;;;;;;;;5047307;28;20055;-60
2022/08/17 10:04:10;;;;;;;19.83;17.55;;;;;;;;;;5044791;28;20407;-60
2022/08/17 10:06:46;;;;;;;19.05;17.35;;;;;;;;;;5048838;28;20087;-60
2022/08/17 10:09:31;;;;;;;19.88;17.88;;;;;;;;;;5047991;28;20493;-60
2022/08/17 10:12:22;;;;;;;19.65;17.23;;;;;;;;;;5048192;28;20503;-60
2022/08/17 10:14:57;;;;;;;20.83;17.27;;;;;;;;;;5050330;28;20060;-61
2022/08/17 10:17:41;;;;;;;20.17;18.25;;;;;;;;;;5047300;28;20049;-61
2022/08/17 10:20:24;;;;;;;20.13;18.02;;;;;;;;;;5039600;28;20042;-61
2022/08/17 10:26:11;;;;;;;18.05;16.30;;;;;;;;;;5037992;28;20080;-61
2022/08/17 10:28:49;;;;;;;18.45;16.77;;;;;;;;;;5043986;28;20040;-60
2022/08/17 10:31:27;;;;;;;19.52;17.73;;;;;;;;;;5045093;28;20041;-61
2022/08/17 10:34:01;;;;;;;20.00;18.02;;;;;;;;;;5051040;28;20060;-61
2022/08/17 10:36:36;;;;;;;17.30;15.65;;;;;;;;;;5050651;28;20045;-60
2022/08/17 10:39:08;;;;;;;19.42;17.17;;;;;;;;;;5049302;28;20547;-61
2022/08/17 10:41:42;;;;;;;17.50;15.75;;;;;;;;;;5051314;28;20094;-60
2022/08/17 10:44:20;;;;;;;15.27;13.70;;;;;;;;;;5049299;28;20060;-60
2022/08/17 10:46:53;;;;;;;16.52;15.02;;;;;;;;;;5048914;28;20037;-61
2022/08/17 10:49:21;;;;;;;14.55;13.10;;;;;;;;;;5050266;28;20061;-61
2022/08/17 10:51:51;;;;;;;15.85;14.05;;;;;;;;;;5050419;28;20127;-61
2022/08/17 10:54:23;;;;;;;17.25;14.85;;;;;;;;;;5049136;28;20095;-61
2022/08/17 10:56:50;;;;;;;17.25;15.38;;;;;;;;;;5051149;28;20045;-61
2022/08/17 10:59:35;;;;;;;18.35;15.00;;;;;;;;;;5050662;28;20055;-60
2022/08/17 11:02:04;;;;;;;16.98;14.20;;;;;;;;;;5051241;28;20045;-60
2022/08/17 11:04:44;;;;;;;17.42;14.77;;;;;;;;;;5049841;28;20057;-61
2022/08/17 11:07:26;;;;;;;16.05;13.85;;;;;;;;;;5050893;28;20048;-60
2022/08/17 11:10:08;;;;;;;16.05;14.55;;;;;;;;;;5050181;28;20048;-61
2022/08/17 11:12:36;;;;;;;14.43;12.80;;;;;;;;;;5049607;28;20472;-61
2022/08/17 11:15:24;;;;;;;14.75;13.07;;;;;;;;;;5049940;28;20059;-61
2022/08/17 11:18:00;;;;;;;12.50;11.30;;;;;;;;;;5030741;28;20061;-61
2022/08/17 11:20:41;;;;;;;13.82;12.50;;;;;;;;;;5038538;28;20114;-61
2022/08/17 11:23:32;;;;;;;12.88;11.20;;;;;;;;;;5050301;28;20091;-61
2022/08/17 11:26:06;;;;;;;13.93;12.60;;;;;;;;;;5049115;28;20136;-61
2022/08/17 11:28:35;;;;;;;13.32;11.98;;;;;;;;;;5050483;28;20522;-60
2022/08/17 11:31:04;;;;;;;13.77;12.38;;;;;;;;;;5049733;28;20055;-61
2022/08/17 11:33:33;;;;;;;13.38;12.10;;;;;;;;;;5049851;28;20124;-60
2022/08/17 11:36:02;;;;;;;16.75;15.20;;;;;;;;;;5049085;28;20502;-61
2022/08/17 11:38:52;;;;;;;15.93;14.38;;;;;;;;;;5049749;28;20124;-61
2022/08/17 11:41:18;;;;;;;14.75;13.25;;;;;;;;;;5049349;28;20051;-60
2022/08/17 11:43:54;;;;;;;15.13;13.52;;;;;;;;;;5049607;28;20063;-60
2022/08/17 11:51:32;;;;;;;16.05;12.43;;;;;;;;;;5049332;28;20455;-61
2022/08/17 11:52:11;;;;;;;14.07;12.48;;;;;;;;;;5030111;28;20045;-60
2022/08/17 11:54:40;;;;;;;12.95;11.18;;;;;;;;;;5037828;28;20599;-60
2022/08/17 11:57:25;;;;;;;13.32;11.88;;;;;;;;;;5049616;28;20041;-61
2022/08/17 11:59:51;;;;;;;15.85;11.98;;;;;;;;;;5044951;28;20399;-61
2022/08/17 12:02:44;;;;;;;15.18;12.68;;;;;;;;;;5030079;28;20107;-60
2022/08/17 12:05:16;;;;;;;15.40;13.82;;;;;;;;;;5037016;28;20053;-61
2022/08/17 12:07:50;;;;;;;14.60;12.52;;;;;;;;;;5049335;28;20048;-60
2022/08/17 12:10:21;;;;;;;14.77;13.32;;;;;;;;;;5048140;28;20111;-60
2022/08/17 12:12:49;;;;;;;14.75;13.23;;;;;;;;;;5049717;28;20055;-61
2022/08/17 12:15:17;;;;;;;16.92;14.40;;;;;;;;;;5049593;28;20045;-60
2022/08/17 12:17:51;;;;;;;15.85;14.10;;;;;;;;;;5049342;28;20072;-60
2022/08/17 12:20:32;;;;;;;16.65;14.93;;;;;;;;;;5048716;28;20099;-60
2022/08/17 12:23:06;;;;;;;18.95;15.68;;;;;;;;;;5048169;28;20048;-61
2022/08/17 12:25:35;;;;;;;18.35;16.45;;;;;;;;;;5048973;28;20041;-60
2022/08/17 12:28:01;;;;;;;17.15;15.02;;;;;;;;;;5048321;28;20040;-60
2022/08/17 12:30:27;;;;;;;20.40;18.30;;;;;;;;;;5047997;28;20053;-61
2022/08/17 12:32:54;;;;;;;16.80;15.02;;;;;;;;;;5028626;28;20570;-60
2022/08/17 12:35:28;;;;;;;15.48;13.88;;;;;;;;;;5036007;28;20133;-60
2022/08/17 12:37:56;;;;;;;17.17;14.90;;;;;;;;;;5049123;28;20438;-60
2022/08/17 12:40:25;;;;;;;17.35;15.73;;;;;;;;;;5048550;28;20053;-61
2022/08/17 12:42:54;;;;;;;16.20;14.45;;;;;;;;;;5048750;28;20045;-60
2022/08/17 12:45:23;;;;;;;15.60;14.07;;;;;;;;;;5047410;28;20140;-61
2022/08/17 12:47:58;;;;;;;15.10;13.02;;;;;;;;;;5049049;28;20045;-61
2022/08/17 12:50:24;;;;;;;17.00;15.15;;;;;;;;;;5047931;28;20056;-60
2022/08/17 12:52:50;;;;;;;16.92;14.90;;;;;;;;;;5047828;28;20095;-60
2022/08/17 12:55:21;;;;;;;14.65;13.25;;;;;;;;;;5047830;28;20052;-61
2022/08/17 12:57:49;;;;;;;14.88;13.32;;;;;;;;;;5048025;28;20127;-60
2022/08/17 13:00:27;;;;;;;16.35;13.73;;;;;;;;;;5046796;28;20049;-60
2022/08/17 13:03:14;;;;;;;17.13;15.25;;;;;;;;;;5046840;28;20403;-60
2022/08/17 13:05:54;;;;;;;15.20;13.57;;;;;;;;;;5048213;28;20036;-62
2022/08/17 13:08:40;;;;;;;14.55;13.05;;;;;;;;;;5046507;28;20522;-60
2022/08/17 13:11:17;;;;;;;16.23;14.70;;;;;;;;;;5044132;28;20052;-60
2022/08/17 13:13:44;;;;;;;16.05;14.55;;;;;;;;;;5047583;28;20103;-60
2022/08/17 13:16:21;;;;;;;17.85;13.95;;;;;;;;;;5046680;28;20083;-60
2022/08/17 13:19:06;;;;;;;14.18;12.73;;;;;;;;;;5047455;28;20041;-60
2022/08/17 13:21:32;;;;;;;15.05;13.50;;;;;;;;;;5046122;28;20049;-60
2022/08/17 13:24:03;;;;;;;16.67;12.57;;;;;;;;;;5047324;28;20044;-60
2022/08/17 13:26:37;;;;;;;20.33;13.05;;;;;;;;;;5046144;28;20131;-60
2022/08/17 13:29:24;;;;;;;20.08;14.23;;;;;;;;;;5046514;28;20117;-60
2022/08/17 13:31:52;;;;;;;16.02;14.43;;;;;;;;;;5046882;28;20041;-61
2022/08/17 13:34:18;;;;;;;18.10;16.20;;;;;;;;;;5042049;28;20047;-60
2022/08/17 13:36:44;;;;;;;19.80;17.85;;;;;;;;;;5036338;28;20164;-60
2022/08/17 13:39:21;;;;;;;20.58;18.38;;;;;;;;;;5047555;28;20041;-60
2022/08/17 13:41:48;;;;;;;20.92;18.63;;;;;;;;;;5046628;28;20083;-61
2022/08/17 13:44:32;;;;;;;21.58;19.38;;;;;;;;;;5047559;28;20045;-59
2022/08/17 13:46:59;;;;;;;22.17;19.83;;;;;;;;;;5046359;28;20518;-59
2022/08/17 13:49:25;;;;;;;22.55;20.02;;;;;;;;;;5046357;28;20457;-61
2022/08/17 13:51:51;;;;;;;63.72;26.98;;;;;;;;;;5045908;28;20479;-59
2022/08/17 13:54:20;;;;;;;47.28;30.58;;;;;;;;;;5047148;28;20136;-63
2022/08/17 13:57:00;;;;;;;67.80;39.87;;;;;;;;;;5045927;28;20060;-64
2022/08/17 13:59:29;;;;;;;74.10;46.17;;;;;;;;;;5047371;28;20049;-65
2022/08/17 14:01:55;;;;;;;71.60;45.17;;;;;;;;;;5046228;28;20056;-64
2022/08/17 14:04:26;;;;;;;71.73;45.03;;;;;;;;;;5047055;28;20045;-64
2022/08/17 14:06:59;;;;;;;97.40;54.43;;;;;;;;;;5047915;28;20037;-64
2022/08/17 14:09:26;;;;;;;110.47;57.92;;;;;;;;;;5049431;28;20061;-64
2022/08/17 14:11:54;;;;;;;74.13;47.27;;;;;;;;;;5049466;28;20450;-64
2022/08/17 14:14:21;;;;;;;89.67;54.37;;;;;;;;;;5050795;28;20120;-62
2022/08/17 14:16:48;;;;;;;69.40;45.10;;;;;;;;;;5049871;28;20503;-62
2022/08/17 14:19:14;;;;;;;46.53;37.83;;;;;;;;;;5048830;28;20514;-62
2022/08/17 14:21:42;;;;;;;98.13;51.93;;;;;;;;;;5051060;28;20041;-63
2022/08/17 14:24:09;;;;;;;83.13;51.07;;;;;;;;;;5049778;28;20142;-63
2022/08/17 14:26:35;;;;;;;43.70;35.17;;;;;;;;;;5050245;28;20131;-63
2022/08/17 14:29:01;;;;;;;39.53;33.87;;;;;;;;;;5050599;28;20131;-63
2022/08/17 14:31:27;;;;;;;53.73;38.77;;;;;;;;;;5050411;28;20107;-63
2022/08/17 14:33:54;;;;;;;51.10;38.03;;;;;;;;;;5044495;28;20045;-63
2022/08/17 14:36:20;;;;;;;57.50;40.87;;;;;;;;;;5050428;28;20041;-63
2022/08/17 14:38:46;;;;;;;48.60;36.53;;;;;;;;;;5050403;28;20530;-63
2022/08/17 14:41:14;;;;;;;67.90;43.83;;;;;;;;;;5049702;28;20045;-64
2022/08/17 14:43:40;;;;;;;66.40;44.37;;;;;;;;;;5050193;28;20131;-64
2022/08/17 14:46:06;;;;;;;55.93;40.63;;;;;;;;;;5031093;28;20445;-64
2022/08/17 14:48:34;;;;;;;58.93;40.77;;;;;;;;;;5030105;28;20054;-64
2022/08/17 14:51:00;;;;;;;60.67;40.83;;;;;;;;;;5049900;28;20045;-64
2022/08/17 14:53:26;;;;;;;85.03;50.97;;;;;;;;;;5050359;28;20060;-63
2022/08/17 14:55:52;;;;;;;45.60;35.30;;;;;;;;;;5049115;28;20045;-64
2022/08/17 14:58:19;;;;;;;56.27;40.07;;;;;;;;;;5048654;28;20949;-63
2022/08/17 15:00:45;;;;;;;54.60;37.53;;;;;;;;;;5050114;28;20069;-64
2022/08/17 15:03:11;;;;;;;52.33;38.20;;;;;;;;;;5049426;28;20052;-64